createdAt,value
2023-05-08T00:01:36.610Z,4.22
2023-05-08T00:04:04.961Z,4.26
2023-05-08T00:06:32.840Z,4.27
2023-05-08T00:09:00.516Z,4.24
2023-05-08T00:11:28.121Z,4.17
2023-05-08T00:13:55.734Z,4.07
2023-05-08T00:16:23.425Z,3.97
2023-05-08T00:18:53.514Z,3.86
2023-05-08T00:21:21.158Z,3.79
2023-05-08T00:23:48.760Z,3.75
2023-05-08T00:26:16.357Z,3.77
2023-05-08T00:28:43.978Z,3.81
2023-05-08T00:31:11.864Z,3.81
2023-05-08T00:33:39.894Z,3.76
2023-05-08T00:36:07.688Z,3.72
2023-05-08T00:38:36.872Z,3.73
2023-05-08T00:41:04.608Z,3.74
2023-05-08T00:43:33.567Z,3.76
2023-05-08T00:46:01.846Z,3.80
2023-05-08T00:48:34.778Z,3.81
2023-05-08T00:51:05.287Z,3.83
2023-05-08T00:53:36.015Z,3.86
2023-05-08T00:56:05.148Z,3.91
2023-05-08T00:58:33.536Z,4.00
2023-05-08T01:01:01.430Z,4.10
2023-05-08T01:03:29.928Z,4.18
2023-05-08T01:05:57.825Z,4.19
2023-05-08T01:08:25.558Z,4.11
2023-05-08T01:11:25.875Z,4.02
2023-05-08T01:14:25.778Z,3.91
2023-05-08T01:17:12.059Z,3.81
2023-05-08T01:20:15.703Z,3.80
2023-05-08T01:23:14.594Z,3.85
2023-05-08T01:26:11.557Z,3.89
2023-05-08T01:29:11.264Z,3.88
2023-05-08T01:32:00.855Z,3.82
2023-05-08T01:34:33.604Z,3.74
2023-05-08T01:37:05.247Z,3.70
2023-05-08T01:39:48.859Z,3.69
2023-05-08T01:42:22.432Z,3.66
2023-05-08T01:45:00.033Z,3.66
2023-05-08T01:47:30.930Z,3.64
2023-05-08T01:50:17.683Z,3.62
2023-05-08T01:52:50.321Z,3.55
2023-05-08T01:55:30.521Z,3.48
2023-05-08T01:57:59.787Z,3.39
2023-05-08T02:00:31.262Z,3.32
2023-05-08T02:03:00.598Z,3.28
2023-05-08T02:05:29.233Z,3.27
2023-05-08T02:07:58.545Z,3.29
2023-05-08T02:10:28.415Z,3.29
2023-05-08T02:12:58.681Z,3.31
2023-05-08T02:15:29.091Z,3.34
2023-05-08T02:17:59.222Z,3.41
2023-05-08T02:20:28.768Z,3.44
2023-05-08T02:22:57.600Z,3.43
2023-05-08T02:25:25.981Z,3.41
2023-05-08T02:27:55.381Z,3.41
2023-05-08T02:30:26.152Z,3.40
2023-05-08T02:32:58.262Z,3.46
2023-05-08T02:35:30.926Z,3.49
2023-05-08T02:38:00.619Z,3.51
2023-05-08T02:40:29.614Z,3.51
2023-05-08T02:42:57.748Z,3.52
2023-05-08T02:45:32.592Z,3.53
2023-05-08T02:48:11.998Z,3.47
2023-05-08T02:51:19.537Z,3.42
2023-05-08T02:54:06.956Z,3.42
2023-05-08T02:56:44.057Z,3.39
2023-05-08T02:59:22.157Z,3.37
2023-05-08T03:02:04.275Z,3.36
2023-05-08T03:04:37.934Z,3.35
2023-05-08T03:07:06.474Z,3.37
2023-05-08T03:09:44.345Z,3.36
2023-05-08T03:12:23.714Z,3.36
2023-05-08T03:15:04.758Z,3.35
2023-05-08T03:17:35.521Z,3.38
2023-05-08T03:20:07.031Z,3.47
2023-05-08T03:22:36.949Z,3.54
2023-05-08T03:25:09.060Z,3.60
2023-05-08T03:27:39.996Z,3.66
2023-05-08T03:30:09.801Z,3.71
2023-05-08T03:32:41.265Z,3.80
2023-05-08T03:35:10.176Z,3.82
2023-05-08T03:37:38.204Z,3.84
2023-05-08T03:40:08.206Z,3.80
2023-05-08T03:42:36.407Z,3.69
2023-05-08T03:45:06.560Z,3.56
2023-05-08T03:47:36.362Z,3.45
2023-05-08T03:50:05.093Z,3.40
2023-05-08T03:52:34.651Z,3.40
2023-05-08T03:55:02.599Z,3.35
2023-05-08T03:57:40.253Z,3.32
2023-05-08T04:00:21.784Z,3.31
2023-05-08T04:03:01.028Z,3.34
2023-05-08T04:05:37.593Z,3.34
2023-05-08T04:08:37.792Z,3.34
2023-05-08T04:11:21.718Z,3.37
2023-05-08T04:13:54.171Z,3.44
2023-05-08T04:16:27.593Z,3.54
2023-05-08T04:19:02.438Z,3.65
2023-05-08T04:21:35.405Z,3.78
2023-05-08T04:24:07.583Z,3.92
2023-05-08T04:26:36.003Z,4.05
2023-05-08T04:29:06.200Z,4.19
2023-05-08T04:31:35.749Z,4.33
2023-05-08T04:34:04.236Z,4.45
2023-05-08T04:36:33.842Z,4.56
2023-05-08T04:39:01.767Z,4.65
2023-05-08T04:41:29.917Z,4.75
2023-05-08T04:43:57.733Z,4.82
2023-05-08T04:46:25.674Z,4.90
2023-05-08T04:48:53.567Z,4.98
2023-05-08T04:51:21.219Z,5.07
2023-05-08T04:53:49.164Z,5.16
2023-05-08T04:56:16.879Z,5.25
2023-05-08T04:58:44.683Z,5.34
2023-05-08T05:01:12.482Z,5.45
2023-05-08T05:03:40.432Z,5.58
2023-05-08T05:06:09.811Z,5.72
2023-05-08T05:08:37.584Z,5.88
2023-05-08T05:11:05.714Z,6.05
2023-05-08T05:13:33.820Z,6.23
2023-05-08T05:16:01.751Z,6.37
2023-05-08T05:18:32.367Z,6.51
2023-05-08T05:21:03.364Z,6.66
2023-05-08T05:23:31.537Z,6.79
2023-05-08T05:25:59.336Z,6.92
2023-05-08T05:28:27.740Z,7.04
2023-05-08T05:30:55.714Z,7.17
2023-05-08T05:33:23.392Z,7.26
2023-05-08T05:35:51.569Z,7.36
2023-05-08T05:38:19.617Z,7.46
2023-05-08T05:40:47.333Z,7.58
2023-05-08T05:43:15.106Z,7.67
2023-05-08T05:45:42.909Z,7.76
2023-05-08T05:48:11.332Z,7.85
2023-05-08T05:50:39.108Z,7.95
2023-05-08T05:53:06.799Z,8.07
2023-05-08T05:55:35.530Z,8.20
2023-05-08T05:58:03.393Z,8.31
2023-05-08T06:00:31.538Z,8.43
2023-05-08T06:02:59.768Z,8.54
2023-05-08T06:05:28.647Z,8.65
2023-05-08T06:07:57.225Z,8.75
2023-05-08T06:10:29.811Z,8.84
2023-05-08T06:12:59.101Z,8.93
2023-05-08T06:15:27.104Z,9.02
2023-05-08T06:17:55.254Z,9.11
2023-05-08T06:20:26.255Z,9.19
2023-05-08T06:22:54.700Z,9.28
2023-05-08T06:25:23.136Z,9.36
2023-05-08T06:28:24.430Z,9.48
2023-05-08T06:30:55.443Z,9.59
2023-05-08T06:33:26.797Z,9.69
2023-05-08T06:35:55.690Z,9.76
2023-05-08T06:38:23.363Z,9.83
2023-05-08T06:40:51.011Z,9.92
2023-05-08T06:43:18.685Z,10.00
2023-05-08T06:45:49.189Z,10.04
2023-05-08T06:48:18.380Z,10.10
2023-05-08T06:50:46.770Z,10.17
2023-05-08T06:53:14.354Z,10.24
2023-05-08T06:55:45.278Z,10.30
2023-05-08T06:58:13.162Z,10.36
2023-05-08T07:00:42.498Z,10.41
2023-05-08T07:03:10.653Z,10.50
2023-05-08T07:05:38.426Z,10.56
2023-05-08T07:08:06.107Z,10.61
2023-05-08T07:10:33.724Z,10.66
2023-05-08T07:13:01.582Z,10.72
2023-05-08T07:15:32.113Z,10.78
2023-05-08T07:18:00.148Z,10.87
2023-05-08T07:20:28.305Z,10.96
2023-05-08T07:22:55.922Z,11.05
2023-05-08T07:25:23.631Z,11.12
2023-05-08T07:27:51.438Z,11.20
2023-05-08T07:30:19.713Z,11.23
2023-05-08T07:32:48.511Z,11.26
2023-05-08T07:35:16.520Z,11.31
2023-05-08T07:37:44.840Z,11.39
2023-05-08T07:40:12.569Z,11.46
2023-05-08T07:42:42.235Z,11.55
2023-05-08T07:45:11.677Z,11.64
2023-05-08T07:47:49.162Z,11.73
2023-05-08T07:50:16.819Z,11.82
2023-05-08T07:52:45.066Z,11.90
2023-05-08T07:55:13.648Z,12.00
2023-05-08T07:57:42.525Z,12.10
2023-05-08T08:00:14.862Z,12.18
2023-05-08T08:02:43.892Z,12.24
2023-05-08T08:05:13.144Z,12.32
2023-05-08T08:07:41.123Z,12.40
2023-05-08T08:10:09.031Z,12.46
2023-05-08T08:12:37.089Z,12.53
2023-05-08T08:15:05.501Z,12.60
2023-05-08T08:17:33.323Z,12.67
2023-05-08T08:20:01.190Z,12.74
2023-05-08T08:22:29.024Z,12.78
2023-05-08T08:25:00.781Z,12.80
2023-05-08T08:27:29.514Z,12.76
2023-05-08T08:30:12.152Z,12.76
2023-05-08T08:32:43.463Z,12.78
2023-05-08T08:35:11.916Z,12.80
2023-05-08T08:37:40.109Z,12.83
2023-05-08T08:40:08.362Z,12.94
2023-05-08T08:42:36.345Z,13.05
2023-05-08T08:45:04.929Z,13.19
2023-05-08T08:47:41.063Z,13.34
2023-05-08T08:50:14.720Z,13.44
2023-05-08T08:53:04.895Z,13.48
2023-05-08T08:55:35.765Z,13.52
2023-05-08T08:58:07.725Z,13.53
2023-05-08T09:00:37.168Z,13.55
2023-05-08T09:03:07.911Z,13.65
2023-05-08T09:05:36.218Z,13.76
2023-05-08T09:08:05.383Z,13.76
2023-05-08T09:10:36.328Z,13.72
2023-05-08T09:13:05.429Z,13.67
2023-05-08T09:15:33.688Z,13.69
2023-05-08T09:18:05.333Z,13.78
2023-05-08T09:20:33.458Z,13.88
2023-05-08T09:23:02.938Z,13.95
2023-05-08T09:25:50.499Z,14.00
2023-05-08T09:28:22.776Z,14.09
2023-05-08T09:30:59.079Z,14.17
2023-05-08T09:33:31.160Z,14.16
2023-05-08T09:35:59.273Z,14.14
2023-05-08T09:38:35.668Z,14.16
2023-05-08T09:41:11.527Z,14.14
2023-05-08T09:43:59.784Z,14.20
2023-05-08T09:46:27.537Z,14.33
2023-05-08T09:48:57.776Z,14.43
2023-05-08T09:51:36.726Z,14.47
2023-05-08T09:54:17.778Z,14.47
2023-05-08T09:56:46.062Z,14.55
2023-05-08T09:59:33.316Z,14.69
2023-05-08T10:02:10.403Z,14.86
2023-05-08T10:04:38.215Z,15.02
2023-05-08T10:07:05.959Z,15.03
2023-05-08T10:09:43.026Z,15.03
2023-05-08T10:12:15.114Z,15.08
2023-05-08T10:14:46.078Z,15.16
2023-05-08T10:17:18.890Z,15.24
2023-05-08T10:19:50.194Z,15.20
2023-05-08T10:22:21.256Z,15.27
2023-05-08T10:24:52.466Z,15.29
2023-05-08T10:27:30.322Z,15.32
2023-05-08T10:30:02.072Z,15.31
2023-05-08T10:32:37.534Z,15.36
2023-05-08T10:35:08.343Z,15.51
2023-05-08T10:37:36.759Z,15.70
2023-05-08T10:40:06.038Z,15.88
2023-05-08T10:42:37.505Z,16.09
2023-05-08T10:45:06.407Z,16.28
2023-05-08T10:47:48.690Z,16.46
2023-05-08T10:50:22.497Z,16.66
2023-05-08T10:52:54.759Z,16.76
2023-05-08T10:55:30.814Z,16.86
2023-05-08T10:58:30.495Z,16.99
2023-05-08T11:01:00.908Z,17.13
2023-05-08T11:03:32.611Z,17.23
2023-05-08T11:06:03.833Z,17.24
2023-05-08T11:08:32.417Z,17.18
2023-05-08T11:11:00.258Z,17.14
2023-05-08T11:13:30.721Z,17.15
2023-05-08T11:15:58.550Z,17.15
2023-05-08T11:18:32.538Z,17.18
2023-05-08T11:21:16.108Z,17.22
2023-05-08T11:23:43.788Z,17.27
2023-05-08T11:26:11.419Z,17.24
2023-05-08T11:28:54.960Z,17.13
2023-05-08T11:31:23.467Z,16.95
2023-05-08T11:33:53.964Z,16.95
2023-05-08T11:36:24.477Z,17.11
2023-05-08T11:39:12.529Z,17.30
2023-05-08T11:41:40.859Z,17.48
2023-05-08T11:44:19.741Z,17.61
2023-05-08T11:46:53.575Z,17.75
2023-05-08T11:49:29.746Z,17.89
2023-05-08T11:51:59.445Z,17.90
2023-05-08T11:54:30.677Z,17.91
2023-05-08T11:56:59.603Z,17.90
2023-05-08T11:59:27.430Z,17.91
2023-05-08T12:04:26.079Z,17.96
2023-05-08T12:06:58.778Z,17.97
2023-05-08T12:09:27.038Z,18.04
2023-05-08T12:11:58.113Z,18.30
2023-05-08T12:14:25.859Z,18.68
2023-05-08T12:16:53.602Z,19.12
2023-05-08T12:19:21.538Z,19.63
2023-05-08T12:21:49.557Z,20.17
2023-05-08T12:24:22.786Z,20.62
2023-05-08T12:26:55.337Z,21.27
2023-05-08T12:29:26.127Z,22.01
2023-05-08T12:31:54.218Z,22.41
2023-05-08T12:34:22.535Z,22.54
2023-05-08T12:37:02.204Z,22.41
2023-05-08T12:39:34.988Z,22.92
2023-05-08T12:42:02.655Z,23.37
2023-05-08T12:44:30.338Z,23.65
2023-05-08T12:46:58.651Z,24.15
2023-05-08T12:49:28.807Z,24.35
2023-05-08T12:52:13.534Z,23.86
2023-05-08T12:54:48.717Z,23.12
2023-05-08T12:57:18.864Z,22.81
2023-05-08T12:59:46.988Z,22.59
2023-05-08T13:02:21.273Z,22.49
2023-05-08T13:04:55.813Z,23.17
2023-05-08T13:07:23.642Z,23.21
2023-05-08T13:10:04.359Z,24.38
2023-05-08T13:12:32.042Z,26.58
2023-05-08T13:15:00.368Z,28.43
2023-05-08T13:17:28.070Z,30.31
2023-05-08T13:19:55.882Z,31.72
2023-05-08T13:22:26.653Z,32.57
2023-05-08T13:24:54.487Z,33.46
2023-05-08T13:27:22.981Z,34.47
2023-05-08T13:29:50.646Z,35.16
2023-05-08T13:32:18.343Z,35.83
2023-05-08T13:34:50.410Z,36.56
2023-05-08T13:37:20.159Z,37.27
2023-05-08T13:39:47.798Z,37.74
2023-05-08T13:42:15.434Z,36.70
2023-05-08T13:44:43.676Z,35.23
2023-05-08T13:47:11.431Z,33.79
2023-05-08T13:49:39.247Z,32.71
2023-05-08T13:52:07.152Z,32.06
2023-05-08T13:54:34.768Z,32.85
2023-05-08T13:57:02.695Z,33.98
2023-05-08T13:59:31.357Z,35.03
2023-05-08T14:01:58.992Z,35.92
2023-05-08T14:04:26.752Z,36.55
2023-05-08T14:06:54.371Z,35.63
2023-05-08T14:09:22.150Z,34.95
2023-05-08T14:11:49.801Z,35.22
2023-05-08T14:14:17.430Z,35.69
2023-05-08T14:16:45.101Z,36.26
2023-05-08T14:19:12.740Z,36.79
2023-05-08T14:21:40.639Z,37.29
2023-05-08T14:24:09.004Z,37.85
2023-05-08T14:26:38.000Z,38.15
2023-05-08T14:29:05.642Z,38.74
2023-05-08T14:31:33.288Z,39.26
2023-05-08T14:34:01.011Z,39.44
2023-05-08T14:36:28.615Z,39.38
2023-05-08T14:38:56.275Z,39.58
2023-05-08T14:41:28.715Z,39.92
2023-05-08T14:43:57.564Z,40.00
2023-05-08T14:46:25.731Z,39.46
2023-05-08T14:48:54.293Z,39.08
2023-05-08T14:51:22.655Z,38.96
2023-05-08T14:53:51.041Z,38.43
2023-05-08T14:56:19.189Z,37.67
2023-05-08T14:58:47.192Z,37.67
2023-05-08T15:01:15.073Z,37.71
2023-05-08T15:03:42.792Z,37.68
2023-05-08T15:06:10.506Z,37.81
2023-05-08T15:08:38.172Z,37.83
2023-05-08T15:11:05.822Z,37.84
2023-05-08T15:13:33.572Z,38.08
2023-05-08T15:16:01.406Z,38.01
2023-05-08T15:18:29.124Z,38.08
2023-05-08T15:20:57.984Z,38.32
2023-05-08T15:23:26.546Z,38.73
2023-05-08T15:25:54.196Z,39.07
2023-05-08T15:28:21.774Z,39.06
2023-05-08T15:30:49.430Z,38.87
2023-05-08T15:33:17.087Z,38.59
2023-05-08T15:35:44.729Z,38.00
2023-05-08T15:38:12.396Z,37.81
2023-05-08T15:40:40.137Z,37.79
2023-05-08T15:43:07.799Z,37.71
2023-05-08T15:45:35.512Z,37.35
2023-05-08T15:48:03.823Z,37.19
2023-05-08T15:50:31.610Z,37.09
2023-05-08T15:53:00.037Z,36.92
2023-05-08T15:55:27.687Z,36.89
2023-05-08T15:57:55.341Z,37.03
2023-05-08T16:00:25.095Z,37.18
2023-05-08T16:02:54.996Z,37.13
2023-05-08T16:05:22.801Z,36.89
2023-05-08T16:07:51.545Z,36.71
2023-05-08T16:10:19.274Z,36.41
2023-05-08T16:12:47.283Z,36.14
2023-05-08T16:15:15.218Z,35.74
2023-05-08T16:17:43.117Z,35.29
2023-05-08T16:20:11.659Z,34.91
2023-05-08T16:22:39.273Z,34.28
2023-05-08T16:25:07.422Z,33.92
2023-05-08T16:27:35.116Z,33.73
2023-05-08T16:30:02.785Z,33.25
2023-05-08T16:32:30.771Z,32.92
2023-05-08T16:34:58.685Z,32.89
2023-05-08T16:37:27.851Z,32.89
2023-05-08T16:39:55.836Z,32.92
2023-05-08T16:42:23.510Z,32.83
2023-05-08T16:44:51.160Z,32.42
2023-05-08T16:47:18.765Z,31.87
2023-05-08T16:49:46.382Z,31.30
2023-05-08T16:52:14.295Z,30.65
2023-05-08T16:54:42.008Z,30.06
2023-05-08T16:57:09.684Z,29.50
2023-05-08T16:59:37.362Z,28.90
2023-05-08T17:02:05.190Z,28.06
2023-05-08T17:04:33.232Z,27.20
2023-05-08T17:07:00.959Z,26.41
2023-05-08T17:09:28.908Z,25.66
2023-05-08T17:11:58.187Z,24.83
2023-05-08T17:14:25.839Z,24.00
2023-05-08T17:16:53.512Z,23.21
2023-05-08T17:19:21.237Z,22.51
2023-05-08T17:21:48.877Z,21.91
2023-05-08T17:24:16.752Z,21.38
2023-05-08T17:26:44.358Z,20.85
2023-05-08T17:29:11.961Z,20.32
2023-05-08T17:31:39.653Z,19.89
2023-05-08T17:34:07.396Z,19.59
2023-05-08T17:36:35.429Z,19.29
2023-05-08T17:39:03.419Z,18.99
2023-05-08T17:41:31.078Z,18.73
2023-05-08T17:43:59.095Z,18.45
2023-05-08T17:46:26.790Z,18.16
2023-05-08T17:48:54.441Z,17.92
2023-05-08T17:51:22.314Z,17.73
2023-05-08T17:53:49.970Z,17.51
2023-05-08T17:56:20.374Z,17.32
2023-05-08T17:58:48.090Z,17.10
2023-05-08T18:01:16.020Z,16.93
2023-05-08T18:03:45.063Z,16.78
2023-05-08T18:06:17.742Z,16.62
2023-05-08T18:08:46.185Z,16.44
2023-05-08T18:11:22.365Z,16.25
2023-05-08T18:13:51.734Z,16.08
2023-05-08T18:16:21.160Z,15.92
2023-05-08T18:18:49.802Z,15.76
2023-05-08T18:21:17.610Z,15.61
2023-05-08T18:23:45.259Z,15.49
2023-05-08T18:26:14.579Z,15.32
2023-05-08T18:28:42.941Z,15.18
2023-05-08T18:31:11.701Z,15.02
2023-05-08T18:33:39.418Z,14.85
2023-05-08T18:36:07.467Z,14.71
2023-05-08T18:38:36.306Z,14.60
2023-05-08T18:41:05.113Z,14.47
2023-05-08T18:43:33.137Z,14.33
2023-05-08T18:46:17.579Z,14.18
2023-05-08T18:48:46.370Z,14.01
2023-05-08T18:51:14.002Z,13.88
2023-05-08T18:53:41.634Z,13.73
2023-05-08T18:56:10.298Z,13.55
2023-05-08T18:58:38.141Z,13.41
2023-05-08T19:01:06.191Z,13.29
2023-05-08T19:03:34.037Z,13.19
2023-05-08T19:06:01.711Z,13.10
2023-05-08T19:08:29.595Z,13.02
2023-05-08T19:10:57.205Z,12.90
2023-05-08T19:13:25.075Z,12.79
2023-05-08T19:15:54.121Z,12.67
2023-05-08T19:18:21.902Z,12.56
2023-05-08T19:20:49.559Z,12.44
2023-05-08T19:23:17.655Z,12.33
2023-05-08T19:25:45.324Z,12.22
2023-05-08T19:28:13.005Z,12.11
2023-05-08T19:30:40.875Z,12.00
2023-05-08T19:33:08.502Z,11.91
2023-05-08T19:35:36.116Z,11.80
2023-05-08T19:38:03.748Z,11.68
2023-05-08T19:40:31.853Z,11.59
2023-05-08T19:43:01.005Z,11.50
2023-05-08T19:45:28.710Z,11.41
2023-05-08T19:47:56.356Z,11.26
2023-05-08T19:50:24.117Z,11.12
2023-05-08T19:52:51.871Z,11.02
2023-05-08T19:55:20.159Z,10.91
2023-05-08T19:57:47.806Z,10.83
2023-05-08T20:00:15.913Z,10.78
2023-05-08T20:02:43.780Z,10.72
2023-05-08T20:05:21.819Z,10.65
2023-05-08T20:07:50.886Z,10.57
2023-05-08T20:10:18.671Z,10.50
2023-05-08T20:12:46.316Z,10.45
2023-05-08T20:15:14.367Z,10.42
2023-05-08T20:17:42.449Z,10.36
2023-05-08T20:20:11.637Z,10.27
2023-05-08T20:22:39.496Z,10.22
2023-05-08T20:25:07.404Z,10.16
2023-05-08T20:27:35.142Z,10.12
2023-05-08T20:30:03.039Z,10.08
2023-05-08T20:32:30.704Z,10.04
2023-05-08T20:34:58.429Z,9.98
2023-05-08T20:37:26.052Z,9.94
2023-05-08T20:39:53.854Z,9.87
2023-05-08T20:42:21.482Z,9.81
2023-05-08T20:44:49.090Z,9.75
2023-05-08T20:47:16.684Z,9.67
2023-05-08T20:49:44.288Z,9.56
2023-05-08T20:52:11.894Z,9.47
2023-05-08T20:54:39.536Z,9.33
2023-05-08T20:57:07.142Z,9.22
2023-05-08T20:59:34.832Z,9.14
2023-05-08T21:02:02.416Z,9.06
2023-05-08T21:04:30.808Z,8.96
2023-05-08T21:06:58.770Z,8.93
2023-05-08T21:09:26.621Z,8.93
2023-05-08T21:11:54.238Z,8.94
2023-05-08T21:14:22.210Z,8.92
2023-05-08T21:16:54.089Z,8.91
2023-05-08T21:19:22.320Z,8.90
2023-05-08T21:21:49.928Z,8.89
2023-05-08T21:24:17.657Z,8.88
2023-05-08T21:26:45.259Z,8.87
2023-05-08T21:29:12.844Z,8.85
2023-05-08T21:31:41.969Z,8.83
2023-05-08T21:34:09.761Z,8.79
2023-05-08T21:36:37.384Z,8.76
2023-05-08T21:39:05.065Z,8.74
2023-05-08T21:41:32.911Z,8.71
2023-05-08T21:44:00.885Z,8.68
2023-05-08T21:46:28.574Z,8.64
2023-05-08T21:48:56.405Z,8.61
2023-05-08T21:51:24.000Z,8.57
2023-05-08T21:53:51.714Z,8.53
2023-05-08T21:56:19.388Z,8.48
2023-05-08T21:58:47.106Z,8.44
2023-05-08T22:01:14.816Z,8.39
2023-05-08T22:03:42.705Z,8.33
2023-05-08T22:06:10.421Z,8.27
2023-05-08T22:08:38.084Z,8.24
2023-05-08T22:11:05.737Z,8.20
2023-05-08T22:13:33.379Z,8.15
2023-05-08T22:16:01.042Z,8.10
2023-05-08T22:18:28.683Z,8.04
2023-05-08T22:20:56.287Z,8.02
2023-05-08T22:23:23.894Z,7.99
2023-05-08T22:25:51.831Z,7.94
2023-05-08T22:28:19.558Z,7.91
2023-05-08T22:30:47.186Z,7.88
2023-05-08T22:33:14.778Z,7.79
2023-05-08T22:35:42.384Z,7.68
2023-05-08T22:38:09.983Z,7.56
2023-05-08T22:40:38.142Z,7.42
2023-05-08T22:43:05.750Z,7.33
2023-05-08T22:45:33.591Z,7.27
2023-05-08T22:48:01.349Z,7.23
2023-05-08T22:50:29.046Z,7.22
2023-05-08T22:52:56.761Z,7.21
2023-05-08T22:55:24.415Z,7.21
2023-05-08T22:57:52.128Z,7.20
2023-05-08T23:00:20.316Z,7.20
2023-05-08T23:02:48.157Z,7.19
2023-05-08T23:05:16.369Z,7.17
2023-05-08T23:07:44.223Z,7.12
2023-05-08T23:10:11.950Z,7.07
2023-05-08T23:12:39.839Z,7.01
2023-05-08T23:15:08.257Z,6.97
2023-05-08T23:17:35.933Z,6.93
2023-05-08T23:20:04.861Z,6.86
2023-05-08T23:22:32.468Z,6.73
2023-05-08T23:25:00.158Z,6.63
2023-05-08T23:27:27.997Z,6.59
2023-05-08T23:29:55.822Z,6.55
2023-05-08T23:32:23.463Z,6.51
2023-05-08T23:34:51.096Z,6.51
2023-05-08T23:37:18.760Z,6.50
2023-05-08T23:39:46.405Z,6.46
2023-05-08T23:42:14.021Z,6.39
2023-05-08T23:44:41.680Z,6.34
2023-05-08T23:47:09.543Z,6.31
2023-05-08T23:49:37.154Z,6.28
2023-05-08T23:52:05.265Z,6.22
2023-05-08T23:54:32.891Z,6.17
2023-05-08T23:57:00.486Z,6.11
2023-05-08T23:59:28.283Z,6.07
